TimeMDT,TemperatureF,Dew PointF,Humidity,Sea Level PressureIn,VisibilityMPH,Wind Direction,Wind SpeedMPH,Gust SpeedMPH,PrecipitationIn,Events,Conditions,WindDirDegrees,DateUTC
12:53 AM,28.9,21.9,75,30.21,10.0,West,8.1,-,N/A,,Clear,260,2013-10-16 06:53:00
1:53 AM,30.0,19.9,66,30.19,10.0,SSW,3.5,-,N/A,,Clear,210,2013-10-16 07:53:00
2:53 AM,28.0,23.0,81,30.20,10.0,ESE,3.5,-,N/A,,Clear,120,2013-10-16 08:53:00
3:53 AM,28.9,21.9,75,30.17,10.0,Calm,Calm,-,N/A,,Clear,0,2013-10-16 09:53:00
4:53 AM,30.0,19.0,64,30.15,10.0,Calm,Calm,-,N/A,,Clear,0,2013-10-16 10:53:00
5:53 AM,27.0,19.0,72,30.16,10.0,SW,6.9,-,N/A,,Clear,230,2013-10-16 11:53:00
6:53 AM,25.0,19.9,81,30.17,10.0,Calm,Calm,-,N/A,,Clear,0,2013-10-16 12:53:00
7:53 AM,28.9,18.0,64,30.16,10.0,Calm,Calm,-,N/A,,Clear,0,2013-10-16 13:53:00
8:53 AM,32.0,24.1,73,30.15,10.0,North,3.5,-,N/A,,Clear,10,2013-10-16 14:53:00
9:53 AM,35.1,21.0,57,30.15,10.0,Calm,Calm,-,N/A,,Clear,0,2013-10-16 15:53:00
10:53 AM,39.9,27.0,60,30.11,10.0,Variable,3.5,-,N/A,,Clear,0,2013-10-16 16:53:00
11:53 AM,41.0,27.0,57,30.12,10.0,Calm,Calm,-,N/A,,Clear,0,2013-10-16 17:53:00
12:53 PM,45.0,28.9,53,30.07,10.0,Calm,Calm,-,N/A,,Clear,0,2013-10-16 18:53:00
1:53 PM,46.9,27.0,46,30.04,10.0,ESE,3.5,-,N/A,,Clear,110,2013-10-16 19:53:00
2:53 PM,48.9,28.0,44,30.01,10.0,Variable,3.5,-,N/A,,Clear,0,2013-10-16 20:53:00
3:53 PM,50.0,23.0,35,30.00,10.0,Calm,Calm,-,N/A,,Clear,0,2013-10-16 21:53:00
4:53 PM,48.9,25.0,39,30.00,10.0,East,3.5,-,N/A,,Clear,80,2013-10-16 22:53:00
5:53 PM,48.0,27.0,44,30.02,10.0,Calm,Calm,-,N/A,,Clear,0,2013-10-16 23:53:00
6:53 PM,44.1,28.0,53,30.06,10.0,Calm,Calm,-,N/A,,Clear,0,2013-10-17 00:53:00
7:53 PM,42.1,28.9,60,30.07,10.0,North,3.5,-,N/A,,Mostly Cloudy,10,2013-10-17 01:53:00
8:53 PM,39.9,28.9,65,30.08,10.0,WSW,8.1,-,N/A,,Clear,250,2013-10-17 02:53:00
9:53 PM,37.9,28.0,68,30.09,10.0,WSW,11.5,-,N/A,,Partly Cloudy,250,2013-10-17 03:53:00
10:53 PM,37.0,27.0,67,30.09,10.0,West,8.1,-,N/A,,Clear,270,2013-10-17 04:53:00
11:53 PM,37.9,26.1,62,30.09,10.0,West,4.6,-,N/A,,Clear,270,2013-10-17 05:53:00